sensor_id;sensor_type;location;lat;lon;timestamp;P1;durP1;ratioP1;P2;durP2;ratioP2
20935;SDS011;10627;54.514;18.532;2022-09-03T00:00:32;1.17;;;0.40;;
20935;SDS011;10627;54.514;18.532;2022-09-03T00:05:45;0.50;;;0.32;;
20935;SDS011;10627;54.514;18.532;2022-09-03T00:17:13;2.38;;;0.40;;
20935;SDS011;10627;54.514;18.532;2022-09-03T00:22:34;0.95;;;0.30;;
20935;SDS011;10627;54.514;18.532;2022-09-03T00:27:38;0.30;;;0.30;;
20935;SDS011;10627;54.514;18.532;2022-09-03T00:38:55;0.55;;;0.47;;
20935;SDS011;10627;54.514;18.532;2022-09-03T01:13:15;1.60;;;0.50;;
20935;SDS011;10627;54.514;18.532;2022-09-03T01:30:07;1.05;;;0.70;;
20935;SDS011;10627;54.514;18.532;2022-09-03T01:46:42;0.80;;;0.80;;
20935;SDS011;10627;54.514;18.532;2022-09-03T01:51:49;0.68;;;0.68;;
20935;SDS011;10627;54.514;18.532;2022-09-03T01:57:07;2.88;;;0.70;;
20935;SDS011;10627;54.514;18.532;2022-09-03T02:02:16;2.67;;;0.70;;
20935;SDS011;10627;54.514;18.532;2022-09-03T02:07:23;1.90;;;0.77;;
20935;SDS011;10627;54.514;18.532;2022-09-03T02:12:29;3.50;;;0.90;;
20935;SDS011;10627;54.514;18.532;2022-09-03T02:17:32;2.42;;;1.10;;
20935;SDS011;10627;54.514;18.532;2022-09-03T02:22:37;1.55;;;0.60;;
20935;SDS011;10627;54.514;18.532;2022-09-03T02:27:40;0.57;;;0.57;;
20935;SDS011;10627;54.514;18.532;2022-09-03T02:32:41;4.32;;;0.80;;
20935;SDS011;10627;54.514;18.532;2022-09-03T02:37:46;1.67;;;0.68;;
20935;SDS011;10627;54.514;18.532;2022-09-03T02:42:47;1.35;;;0.60;;
20935;SDS011;10627;54.514;18.532;2022-09-03T02:47:49;2.05;;;0.88;;
20935;SDS011;10627;54.514;18.532;2022-09-03T02:52:52;1.63;;;0.77;;
20935;SDS011;10627;54.514;18.532;2022-09-03T02:57:58;1.25;;;0.68;;
20935;SDS011;10627;54.514;18.532;2022-09-03T03:02:59;1.90;;;0.65;;
20935;SDS011;10627;54.514;18.532;2022-09-03T03:08:00;0.82;;;0.60;;
20935;SDS011;10627;54.514;18.532;2022-09-03T03:13:00;2.25;;;0.60;;
20935;SDS011;10627;54.514;18.532;2022-09-03T03:18:01;3.13;;;0.80;;
20935;SDS011;10627;54.514;18.532;2022-09-03T03:23:01;4.03;;;0.70;;
20935;SDS011;10627;54.514;18.532;2022-09-03T03:28:04;2.95;;;0.50;;
20935;SDS011;10627;54.514;18.532;2022-09-03T03:33:05;2.28;;;0.70;;
20935;SDS011;10627;54.514;18.532;2022-09-03T03:38:06;0.93;;;0.60;;
20935;SDS011;10627;54.514;18.532;2022-09-03T03:43:07;1.05;;;0.63;;
20935;SDS011;10627;54.514;18.532;2022-09-03T03:48:13;2.00;;;0.60;;
20935;SDS011;10627;54.514;18.532;2022-09-03T03:53:14;2.45;;;0.80;;
20935;SDS011;10627;54.514;18.532;2022-09-03T03:58:14;5.85;;;0.75;;
20935;SDS011;10627;54.514;18.532;2022-09-03T04:03:17;1.70;;;0.70;;
20935;SDS011;10627;54.514;18.532;2022-09-03T04:08:19;0.90;;;0.65;;
20935;SDS011;10627;54.514;18.532;2022-09-03T04:13:19;1.60;;;1.20;;
20935;SDS011;10627;54.514;18.532;2022-09-03T04:18:21;2.38;;;0.98;;
20935;SDS011;10627;54.514;18.532;2022-09-03T04:23:23;1.05;;;0.80;;
20935;SDS011;10627;54.514;18.532;2022-09-03T04:28:24;1.00;;;0.73;;
20935;SDS011;10627;54.514;18.532;2022-09-03T04:33:24;0.88;;;0.77;;
20935;SDS011;10627;54.514;18.532;2022-09-03T04:38:27;1.85;;;1.00;;
20935;SDS011;10627;54.514;18.532;2022-09-03T04:43:28;4.85;;;1.05;;
20935;SDS011;10627;54.514;18.532;2022-09-03T04:48:29;2.35;;;1.00;;
20935;SDS011;10627;54.514;18.532;2022-09-03T04:53:32;2.08;;;0.95;;
20935;SDS011;10627;54.514;18.532;2022-09-03T04:58:36;0.65;;;0.60;;
20935;SDS011;10627;54.514;18.532;2022-09-03T05:03:36;3.83;;;0.90;;
20935;SDS011;10627;54.514;18.532;2022-09-03T05:08:37;0.80;;;0.80;;
20935;SDS011;10627;54.514;18.532;2022-09-03T05:13:39;4.47;;;0.88;;
20935;SDS011;10627;54.514;18.532;2022-09-03T05:18:44;4.15;;;1.02;;
20935;SDS011;10627;54.514;18.532;2022-09-03T05:23:46;3.22;;;1.23;;
20935;SDS011;10627;54.514;18.532;2022-09-03T05:28:47;2.83;;;1.45;;
20935;SDS011;10627;54.514;18.532;2022-09-03T05:33:52;2.97;;;1.30;;
20935;SDS011;10627;54.514;18.532;2022-09-03T05:38:53;4.70;;;1.73;;
20935;SDS011;10627;54.514;18.532;2022-09-03T05:43:54;6.35;;;1.73;;
20935;SDS011;10627;54.514;18.532;2022-09-03T05:48:55;2.65;;;1.38;;
20935;SDS011;10627;54.514;18.532;2022-09-03T05:53:56;2.70;;;1.02;;
20935;SDS011;10627;54.514;18.532;2022-09-03T05:58:57;8.23;;;1.20;;
20935;SDS011;10627;54.514;18.532;2022-09-03T06:04:01;5.10;;;1.17;;
20935;SDS011;10627;54.514;18.532;2022-09-03T06:09:03;2.92;;;1.48;;
20935;SDS011;10627;54.514;18.532;2022-09-03T06:14:04;1.85;;;1.30;;
20935;SDS011;10627;54.514;18.532;2022-09-03T06:19:07;2.97;;;1.10;;
20935;SDS011;10627;54.514;18.532;2022-09-03T06:24:11;1.88;;;1.30;;
20935;SDS011;10627;54.514;18.532;2022-09-03T06:29:15;2.30;;;1.00;;
20935;SDS011;10627;54.514;18.532;2022-09-03T06:34:18;5.05;;;1.17;;
20935;SDS011;10627;54.514;18.532;2022-09-03T06:39:19;3.15;;;1.30;;
20935;SDS011;10627;54.514;18.532;2022-09-03T06:44:20;3.55;;;0.85;;
20935;SDS011;10627;54.514;18.532;2022-09-03T06:49:21;1.33;;;0.75;;
20935;SDS011;10627;54.514;18.532;2022-09-03T06:54:23;2.15;;;0.98;;
20935;SDS011;10627;54.514;18.532;2022-09-03T06:59:24;1.40;;;0.98;;
20935;SDS011;10627;54.514;18.532;2022-09-03T07:04:24;1.27;;;0.82;;
20935;SDS011;10627;54.514;18.532;2022-09-03T07:09:26;1.02;;;0.90;;
20935;SDS011;10627;54.514;18.532;2022-09-03T07:14:29;1.45;;;0.85;;
20935;SDS011;10627;54.514;18.532;2022-09-03T07:19:30;1.08;;;0.77;;
20935;SDS011;10627;54.514;18.532;2022-09-03T07:24:30;0.70;;;0.70;;
20935;SDS011;10627;54.514;18.532;2022-09-03T07:29:31;2.05;;;0.47;;
20935;SDS011;10627;54.514;18.532;2022-09-03T07:34:33;4.07;;;0.60;;
20935;SDS011;10627;54.514;18.532;2022-09-03T07:39:57;1.00;;;0.55;;
20935;SDS011;10627;54.514;18.532;2022-09-03T07:44:57;0.93;;;0.47;;
20935;SDS011;10627;54.514;18.532;2022-09-03T07:50:27;2.00;;;0.45;;
20935;SDS011;10627;54.514;18.532;2022-09-03T07:55:47;0.52;;;0.50;;
20935;SDS011;10627;54.514;18.532;2022-09-03T08:01:12;0.63;;;0.60;;
20935;SDS011;10627;54.514;18.532;2022-09-03T08:06:14;0.40;;;0.40;;
20935;SDS011;10627;54.514;18.532;2022-09-03T08:11:16;1.75;;;0.38;;
20935;SDS011;10627;54.514;18.532;2022-09-03T08:16:22;1.33;;;0.90;;
20935;SDS011;10627;54.514;18.532;2022-09-03T08:21:22;1.27;;;0.50;;
20935;SDS011;10627;54.514;18.532;2022-09-03T08:26:31;0.40;;;0.30;;
20935;SDS011;10627;54.514;18.532;2022-09-03T08:31:52;0.50;;;0.50;;
20935;SDS011;10627;54.514;18.532;2022-09-03T08:36:59;0.68;;;0.32;;
20935;SDS011;10627;54.514;18.532;2022-09-03T08:58:13;2.47;;;0.77;;
20935;SDS011;10627;54.514;18.532;2022-09-03T09:03:25;1.17;;;0.80;;
20935;SDS011;10627;54.514;18.532;2022-09-03T09:19:01;0.82;;;0.40;;
20935;SDS011;10627;54.514;18.532;2022-09-03T09:24:06;0.30;;;0.30;;
20935;SDS011;10627;54.514;18.532;2022-09-03T09:29:11;0.20;;;0.20;;
20935;SDS011;10627;54.514;18.532;2022-09-03T09:34:12;0.68;;;0.60;;
20935;SDS011;10627;54.514;18.532;2022-09-03T09:39:13;0.57;;;0.47;;
20935;SDS011;10627;54.514;18.532;2022-09-03T09:44:19;0.30;;;0.30;;
20935;SDS011;10627;54.514;18.532;2022-09-03T09:54:36;0.55;;;0.38;;
20935;SDS011;10627;54.514;18.532;2022-09-03T09:59:37;0.38;;;0.20;;
20935;SDS011;10627;54.514;18.532;2022-09-03T10:04:38;1.45;;;0.60;;
20935;SDS011;10627;54.514;18.532;2022-09-03T10:09:39;0.35;;;0.30;;
20935;SDS011;10627;54.514;18.532;2022-09-03T10:14:44;0.93;;;0.30;;
20935;SDS011;10627;54.514;18.532;2022-09-03T10:25:24;0.10;;;0.10;;
20935;SDS011;10627;54.514;18.532;2022-09-03T10:30:25;1.35;;;0.60;;
20935;SDS011;10627;54.514;18.532;2022-09-03T10:35:30;0.50;;;0.50;;
20935;SDS011;10627;54.514;18.532;2022-09-03T10:45:45;0.65;;;0.50;;
20935;SDS011;10627;54.514;18.532;2022-09-03T10:50:48;0.50;;;0.50;;
20935;SDS011;10627;54.514;18.532;2022-09-03T10:56:10;0.40;;;0.30;;
20935;SDS011;10627;54.514;18.532;2022-09-03T11:01:23;0.60;;;0.40;;
20935;SDS011;10627;54.514;18.532;2022-09-03T11:06:54;3.38;;;0.20;;
20935;SDS011;10627;54.514;18.532;2022-09-03T11:12:04;0.30;;;0.30;;
20935;SDS011;10627;54.514;18.532;2022-09-03T11:17:12;0.20;;;0.20;;
20935;SDS011;10627;54.514;18.532;2022-09-03T11:22:14;0.70;;;0.35;;
20935;SDS011;10627;54.514;18.532;2022-09-03T11:32:29;0.32;;;0.28;;
20935;SDS011;10627;54.514;18.532;2022-09-03T11:37:32;0.43;;;0.28;;
20935;SDS011;10627;54.514;18.532;2022-09-03T11:42:37;0.63;;;0.20;;
20935;SDS011;10627;54.514;18.532;2022-09-03T11:47:44;1.20;;;0.50;;
20935;SDS011;10627;54.514;18.532;2022-09-03T11:52:46;0.35;;;0.32;;
20935;SDS011;10627;54.514;18.532;2022-09-03T11:57:51;0.43;;;0.40;;
20935;SDS011;10627;54.514;18.532;2022-09-03T12:02:56;0.73;;;0.70;;
20935;SDS011;10627;54.514;18.532;2022-09-03T12:08:07;0.88;;;0.60;;
20935;SDS011;10627;54.514;18.532;2022-09-03T12:13:32;0.30;;;0.30;;
20935;SDS011;10627;54.514;18.532;2022-09-03T12:18:35;1.33;;;0.40;;
20935;SDS011;10627;54.514;18.532;2022-09-03T12:23:43;1.17;;;0.52;;
20935;SDS011;10627;54.514;18.532;2022-09-03T12:28:47;4.57;;;1.00;;
20935;SDS011;10627;54.514;18.532;2022-09-03T12:33:51;0.63;;;0.50;;
20935;SDS011;10627;54.514;18.532;2022-09-03T12:39:06;0.20;;;0.20;;
20935;SDS011;10627;54.514;18.532;2022-09-03T12:44:09;0.55;;;0.50;;
20935;SDS011;10627;54.514;18.532;2022-09-03T12:49:13;5.28;;;0.80;;
20935;SDS011;10627;54.514;18.532;2022-09-03T12:54:16;1.63;;;0.40;;
20935;SDS011;10627;54.514;18.532;2022-09-03T12:59:17;1.90;;;0.77;;
20935;SDS011;10627;54.514;18.532;2022-09-03T13:04:30;0.88;;;0.88;;
20935;SDS011;10627;54.514;18.532;2022-09-03T13:09:32;1.35;;;0.60;;
20935;SDS011;10627;54.514;18.532;2022-09-03T13:14:42;4.22;;;0.50;;
20935;SDS011;10627;54.514;18.532;2022-09-03T13:30:14;1.23;;;0.60;;
20935;SDS011;10627;54.514;18.532;2022-09-03T13:40:40;0.60;;;0.57;;
20935;SDS011;10627;54.514;18.532;2022-09-03T13:51:09;0.85;;;0.50;;
20935;SDS011;10627;54.514;18.532;2022-09-03T13:56:25;3.03;;;0.68;;
20935;SDS011;10627;54.514;18.532;2022-09-03T14:01:43;0.60;;;0.45;;
20935;SDS011;10627;54.514;18.532;2022-09-03T14:06:46;0.60;;;0.60;;
20935;SDS011;10627;54.514;18.532;2022-09-03T14:16:53;0.63;;;0.50;;
20935;SDS011;10627;54.514;18.532;2022-09-03T14:22:00;0.65;;;0.55;;
20935;SDS011;10627;54.514;18.532;2022-09-03T14:27:03;1.58;;;0.50;;
20935;SDS011;10627;54.514;18.532;2022-09-03T14:53:25;0.90;;;0.77;;
20935;SDS011;10627;54.514;18.532;2022-09-03T14:58:53;7.18;;;1.38;;
20935;SDS011;10627;54.514;18.532;2022-09-03T15:09:44;1.25;;;0.57;;
20935;SDS011;10627;54.514;18.532;2022-09-03T15:14:54;1.40;;;0.50;;
20935;SDS011;10627;54.514;18.532;2022-09-03T15:20:03;1.98;;;0.73;;
20935;SDS011;10627;54.514;18.532;2022-09-03T15:30:56;0.60;;;0.57;;
20935;SDS011;10627;54.514;18.532;2022-09-03T15:36:06;0.85;;;0.60;;
20935;SDS011;10627;54.514;18.532;2022-09-03T15:41:27;7.70;;;0.70;;
20935;SDS011;10627;54.514;18.532;2022-09-03T15:46:38;1.20;;;0.55;;
20935;SDS011;10627;54.514;18.532;2022-09-03T16:03:30;0.65;;;0.50;;
20935;SDS011;10627;54.514;18.532;2022-09-03T16:08:53;1.15;;;0.40;;
20935;SDS011;10627;54.514;18.532;2022-09-03T16:14:00;1.60;;;0.45;;
20935;SDS011;10627;54.514;18.532;2022-09-03T16:24:43;0.95;;;0.60;;
20935;SDS011;10627;54.514;18.532;2022-09-03T16:29:53;1.45;;;0.60;;
20935;SDS011;10627;54.514;18.532;2022-09-03T16:35:03;1.02;;;0.60;;
20935;SDS011;10627;54.514;18.532;2022-09-03T16:40:35;1.52;;;0.68;;
20935;SDS011;10627;54.514;18.532;2022-09-03T16:51:31;0.90;;;0.70;;
20935;SDS011;10627;54.514;18.532;2022-09-03T17:12:28;2.13;;;0.80;;
20935;SDS011;10627;54.514;18.532;2022-09-03T17:34:14;0.90;;;0.60;;
20935;SDS011;10627;54.514;18.532;2022-09-03T17:39:34;2.08;;;1.55;;
20935;SDS011;10627;54.514;18.532;2022-09-03T17:44:53;1.10;;;1.00;;
20935;SDS011;10627;54.514;18.532;2022-09-03T17:50:17;1.27;;;0.80;;
20935;SDS011;10627;54.514;18.532;2022-09-03T17:55:31;1.90;;;1.08;;
20935;SDS011;10627;54.514;18.532;2022-09-03T18:00:37;2.88;;;0.93;;
20935;SDS011;10627;54.514;18.532;2022-09-03T18:06:05;5.32;;;0.90;;
20935;SDS011;10627;54.514;18.532;2022-09-03T18:11:12;0.52;;;0.52;;
20935;SDS011;10627;54.514;18.532;2022-09-03T18:16:16;2.45;;;0.80;;
20935;SDS011;10627;54.514;18.532;2022-09-03T18:21:23;2.33;;;1.10;;
20935;SDS011;10627;54.514;18.532;2022-09-03T18:26:46;1.10;;;0.70;;
20935;SDS011;10627;54.514;18.532;2022-09-03T18:32:09;3.20;;;1.25;;
20935;SDS011;10627;54.514;18.532;2022-09-03T18:37:32;0.60;;;0.60;;
20935;SDS011;10627;54.514;18.532;2022-09-03T18:48:27;0.77;;;0.70;;
20935;SDS011;10627;54.514;18.532;2022-09-03T19:10:19;0.60;;;0.60;;
20935;SDS011;10627;54.514;18.532;2022-09-03T19:16:24;2.85;;;1.05;;
20935;SDS011;10627;54.514;18.532;2022-09-03T19:21:47;0.80;;;0.80;;
20935;SDS011;10627;54.514;18.532;2022-09-03T19:33:20;0.80;;;0.80;;
20935;SDS011;10627;54.514;18.532;2022-09-03T19:55:34;3.17;;;0.88;;
20935;SDS011;10627;54.514;18.532;2022-09-03T20:00:58;1.47;;;0.90;;
20935;SDS011;10627;54.514;18.532;2022-09-03T20:06:24;1.48;;;0.70;;
20935;SDS011;10627;54.514;18.532;2022-09-03T20:11:45;0.70;;;0.70;;
20935;SDS011;10627;54.514;18.532;2022-09-03T20:17:00;1.05;;;0.85;;
20935;SDS011;10627;54.514;18.532;2022-09-03T20:22:26;0.73;;;0.73;;
20935;SDS011;10627;54.514;18.532;2022-09-03T20:33:25;4.20;;;0.75;;
20935;SDS011;10627;54.514;18.532;2022-09-03T20:38:41;0.98;;;0.90;;
20935;SDS011;10627;54.514;18.532;2022-09-03T20:44:03;1.80;;;0.75;;
20935;SDS011;10627;54.514;18.532;2022-09-03T20:55:18;1.10;;;0.95;;
20935;SDS011;10627;54.514;18.532;2022-09-03T21:00:22;0.93;;;0.90;;
20935;SDS011;10627;54.514;18.532;2022-09-03T21:11:14;0.63;;;0.63;;
20935;SDS011;10627;54.514;18.532;2022-09-03T21:16:46;1.45;;;0.80;;
20935;SDS011;10627;54.514;18.532;2022-09-03T21:27:32;2.70;;;0.90;;
20935;SDS011;10627;54.514;18.532;2022-09-03T21:38:04;0.50;;;0.50;;
20935;SDS011;10627;54.514;18.532;2022-09-03T21:43:10;2.63;;;1.20;;
20935;SDS011;10627;54.514;18.532;2022-09-03T21:53:36;0.77;;;0.60;;
20935;SDS011;10627;54.514;18.532;2022-09-03T21:58:46;1.35;;;0.90;;
20935;SDS011;10627;54.514;18.532;2022-09-03T22:04:02;1.33;;;0.73;;
20935;SDS011;10627;54.514;18.532;2022-09-03T22:09:13;2.85;;;0.82;;
20935;SDS011;10627;54.514;18.532;2022-09-03T22:14:21;1.50;;;0.60;;
20935;SDS011;10627;54.514;18.532;2022-09-03T22:19:24;2.38;;;1.02;;
20935;SDS011;10627;54.514;18.532;2022-09-03T22:40:05;1.75;;;0.80;;
20935;SDS011;10627;54.514;18.532;2022-09-03T22:52:16;2.10;;;0.77;;
20935;SDS011;10627;54.514;18.532;2022-09-03T22:56:59;4.65;;;0.90;;
20935;SDS011;10627;54.514;18.532;2022-09-03T23:07:09;3.58;;;1.80;;
20935;SDS011;10627;54.514;18.532;2022-09-03T23:12:24;1.13;;;0.80;;
